createdAt,value
2019-01-19T00:01:53.777Z,0.40
2019-01-19T00:05:10.392Z,0.40
2019-01-19T00:07:48.123Z,0.40
2019-01-19T00:11:04.586Z,0.40
2019-01-19T00:13:45.195Z,0.40
2019-01-19T00:16:42.822Z,0.30
2019-01-19T00:19:47.871Z,0.30
2019-01-19T00:22:53.799Z,0.30
2019-01-19T00:26:04.074Z,0.30
2019-01-19T00:28:41.061Z,0.30
2019-01-19T00:31:16.443Z,0.30
2019-01-19T00:34:33.816Z,0.20
2019-01-19T00:37:14.080Z,0.20
2019-01-19T00:40:29.519Z,0.20
2019-01-19T00:43:04.046Z,0.20
2019-01-19T00:46:15.366Z,0.20
2019-01-19T00:49:16.238Z,0.20
2019-01-19T00:52:27.190Z,0.20
2019-01-19T00:55:15.891Z,0.10
2019-01-19T00:58:34.202Z,0.10
2019-01-19T01:02:05.863Z,0.10
2019-01-19T01:05:01.907Z,0.10
2019-01-19T01:08:01.434Z,0.10
2019-01-19T01:10:51.841Z,0.00
2019-01-19T01:14:04.008Z,0.00
2019-01-19T01:16:59.759Z,0.00
2019-01-19T01:19:56.979Z,0.00
2019-01-19T01:22:53.546Z,0.00
2019-01-19T01:26:09.666Z,-0.10
2019-01-19T01:29:18.352Z,0.00
2019-01-19T01:32:16.046Z,0.00
2019-01-19T01:35:13.818Z,0.00
2019-01-19T01:37:51.791Z,-0.10
2019-01-19T01:41:07.577Z,0.00
2019-01-19T01:44:15.062Z,-0.10
2019-01-19T01:47:31.286Z,-0.10
2019-01-19T01:50:30.778Z,-0.10
2019-01-19T01:53:49.609Z,-0.10
2019-01-19T01:56:18.517Z,-0.10
2019-01-19T01:59:18.658Z,-0.10
2019-01-19T02:02:22.816Z,-0.20
2019-01-19T02:05:40.031Z,-0.20
2019-01-19T02:08:19.890Z,-0.20
2019-01-19T02:11:33.434Z,-0.20
2019-01-19T02:14:43.487Z,-0.20
2019-01-19T02:18:08.290Z,-0.20
2019-01-19T02:20:50.775Z,-0.20
2019-01-19T02:23:49.590Z,-0.20
2019-01-19T02:26:44.042Z,-0.30
2019-01-19T02:29:48.462Z,-0.30
2019-01-19T02:32:36.961Z,-0.20
2019-01-19T02:36:02.487Z,-0.30
2019-01-19T02:39:06.675Z,-0.30
2019-01-19T02:41:51.047Z,-0.30
2019-01-19T02:45:16.643Z,-0.30
2019-01-19T02:48:21.590Z,-0.40
2019-01-19T02:51:01.810Z,-0.40
2019-01-19T02:54:08.336Z,-0.40
2019-01-19T02:56:59.850Z,-0.40
2019-01-19T02:59:47.174Z,-0.50
2019-01-19T03:02:26.792Z,-0.50
2019-01-19T03:05:56.846Z,-0.50
2019-01-19T03:09:06.703Z,-0.50
2019-01-19T03:12:18.646Z,-0.50
2019-01-19T03:14:58.538Z,-0.50
2019-01-19T03:18:04.018Z,-0.50
2019-01-19T03:20:44.458Z,-0.60
2019-01-19T03:23:27.687Z,-0.60
2019-01-19T03:26:21.348Z,-0.60
2019-01-19T03:29:36.105Z,-0.60
2019-01-19T03:32:27.195Z,-0.60
2019-01-19T03:35:10.153Z,-0.60
2019-01-19T03:38:11.462Z,-0.60
2019-01-19T03:41:29.932Z,-0.60
2019-01-19T03:44:35.522Z,-0.70
2019-01-19T03:47:45.472Z,-0.70
2019-01-19T03:51:07.564Z,-0.60
2019-01-19T03:54:05.027Z,-0.60
2019-01-19T03:56:51.759Z,-0.70
2019-01-19T04:00:02.199Z,-0.70
2019-01-19T04:03:16.920Z,-0.70
2019-01-19T04:06:14.484Z,-0.70
2019-01-19T04:09:21.676Z,-0.60
2019-01-19T04:12:24.019Z,-0.70
2019-01-19T04:15:16.989Z,-0.60
2019-01-19T04:18:26.623Z,-0.60
2019-01-19T04:22:01.639Z,-0.70
2019-01-19T04:24:46.238Z,-0.70
2019-01-19T04:27:14.848Z,-0.70
2019-01-19T04:29:43.430Z,-0.60
2019-01-19T04:32:12.267Z,-0.60
2019-01-19T04:34:40.999Z,-0.60
2019-01-19T04:37:09.520Z,-0.60
2019-01-19T04:39:38.099Z,-0.60
2019-01-19T04:42:07.048Z,-0.60
2019-01-19T04:44:35.714Z,-0.60
2019-01-19T04:47:04.266Z,-0.70
2019-01-19T04:49:32.866Z,-0.70
2019-01-19T04:52:01.415Z,-0.70
2019-01-19T04:54:29.986Z,-0.70
2019-01-19T04:56:58.573Z,-0.60
2019-01-19T04:59:27.494Z,-0.70
2019-01-19T05:01:56.687Z,-0.70
2019-01-19T05:04:25.585Z,-0.70
2019-01-19T05:06:54.151Z,-0.70
2019-01-19T05:09:22.715Z,-0.70
2019-01-19T05:11:51.298Z,-0.70
2019-01-19T05:14:19.883Z,-0.70
2019-01-19T05:16:48.548Z,-0.70
2019-01-19T05:19:17.164Z,-0.70
2019-01-19T05:21:45.758Z,-0.70
2019-01-19T05:24:14.326Z,-0.70
2019-01-19T05:26:42.929Z,-0.70
2019-01-19T05:29:11.490Z,-0.70
2019-01-19T05:31:40.028Z,-0.70
2019-01-19T05:34:08.663Z,-0.60
2019-01-19T05:36:38.525Z,-0.60
2019-01-19T05:39:08.313Z,-0.70
2019-01-19T05:41:37.116Z,-0.70
2019-01-19T05:44:05.994Z,-0.70
2019-01-19T05:46:34.878Z,-0.70
2019-01-19T05:49:03.402Z,-0.70
2019-01-19T05:51:32.015Z,-0.70
2019-01-19T05:54:01.258Z,-0.70
2019-01-19T05:56:29.823Z,-0.80
2019-01-19T05:58:58.420Z,-0.80
2019-01-19T06:01:28.214Z,-0.80
2019-01-19T06:03:56.888Z,-0.80
2019-01-19T06:06:25.762Z,-0.80
2019-01-19T06:08:54.427Z,-0.90
2019-01-19T06:11:23.050Z,-0.90
2019-01-19T06:13:51.970Z,-0.90
2019-01-19T06:16:20.523Z,-0.90
2019-01-19T06:18:49.795Z,-0.90
2019-01-19T06:21:20.079Z,-0.90
2019-01-19T06:23:48.975Z,-0.90
2019-01-19T06:26:18.550Z,-1.00
2019-01-19T06:28:47.471Z,-1.00
2019-01-19T06:31:16.007Z,-1.00
2019-01-19T06:33:44.606Z,-1.00
2019-01-19T06:36:13.206Z,-1.00
2019-01-19T06:38:41.782Z,-1.00
2019-01-19T06:41:10.974Z,-1.00
2019-01-19T06:43:39.842Z,-1.00
2019-01-19T06:46:08.454Z,-1.10
2019-01-19T06:48:37.263Z,-1.10
2019-01-19T06:51:05.819Z,-1.10
2019-01-19T06:53:34.398Z,-1.10
2019-01-19T06:56:04.247Z,-1.10
2019-01-19T06:58:32.791Z,-1.10
2019-01-19T07:01:01.391Z,-1.10
2019-01-19T07:03:29.959Z,-1.10
2019-01-19T07:05:58.551Z,-1.10
2019-01-19T07:08:27.774Z,-1.10
2019-01-19T07:10:56.384Z,-1.10
2019-01-19T07:13:25.015Z,-1.10
2019-01-19T07:15:53.919Z,-1.10
2019-01-19T07:18:22.793Z,-1.10
2019-01-19T07:20:51.570Z,-1.10
2019-01-19T07:23:20.175Z,-1.10
2019-01-19T07:25:49.813Z,-1.10
2019-01-19T07:28:18.707Z,-1.10
2019-01-19T07:30:47.270Z,-1.10
2019-01-19T07:33:15.834Z,-1.10
2019-01-19T07:35:44.767Z,-1.10
2019-01-19T07:38:13.310Z,-1.10
2019-01-19T07:40:41.894Z,-1.10
2019-01-19T07:43:13.918Z,-1.10
2019-01-19T07:45:42.577Z,-1.00
2019-01-19T07:48:11.406Z,-1.00
2019-01-19T07:50:40.026Z,-1.00
2019-01-19T07:53:09.248Z,-1.00
2019-01-19T07:55:37.817Z,-1.00
2019-01-19T07:58:06.724Z,-1.00
2019-01-19T08:00:35.925Z,-1.00
2019-01-19T08:03:04.521Z,-1.00
2019-01-19T08:05:33.067Z,-1.00
2019-01-19T08:08:01.974Z,-1.00
2019-01-19T08:10:30.545Z,-1.00
2019-01-19T08:12:59.499Z,-1.00
2019-01-19T08:15:29.443Z,-1.00
2019-01-19T08:17:58.472Z,-1.00
2019-01-19T08:20:27.043Z,-1.00
2019-01-19T08:22:55.627Z,-1.00
2019-01-19T08:25:24.202Z,-1.00
2019-01-19T08:27:52.778Z,-0.90
2019-01-19T08:30:23.476Z,-0.90
2019-01-19T08:32:52.108Z,-0.90
2019-01-19T08:35:20.910Z,-0.80
2019-01-19T08:37:49.811Z,-0.80
2019-01-19T08:40:20.566Z,-0.80
2019-01-19T08:42:54.955Z,-0.80
2019-01-19T08:45:24.230Z,-0.80
2019-01-19T08:47:53.057Z,-0.80
2019-01-19T08:50:21.554Z,-0.80
2019-01-19T08:52:50.218Z,-0.80
2019-01-19T08:55:19.150Z,-0.80
2019-01-19T08:57:48.099Z,-0.70
2019-01-19T09:00:16.702Z,-0.70
2019-01-19T09:02:45.354Z,-0.70
2019-01-19T09:05:13.926Z,-0.60
2019-01-19T09:07:42.547Z,-0.60
2019-01-19T09:10:12.919Z,-0.50
2019-01-19T09:12:41.533Z,-0.40
2019-01-19T09:15:12.319Z,-0.40
2019-01-19T09:17:40.942Z,-0.30
2019-01-19T09:20:11.359Z,-0.20
2019-01-19T09:22:39.947Z,-0.10
2019-01-19T09:25:10.330Z,-0.10
2019-01-19T09:27:38.891Z,0.00
2019-01-19T09:30:14.563Z,0.10
2019-01-19T09:32:43.727Z,0.20
2019-01-19T09:35:12.934Z,0.20
2019-01-19T09:37:41.480Z,0.30
2019-01-19T09:40:11.234Z,0.40
2019-01-19T09:42:39.874Z,0.50
2019-01-19T09:45:08.818Z,0.60
2019-01-19T09:47:37.348Z,0.60
2019-01-19T09:50:07.086Z,0.60
2019-01-19T09:52:35.658Z,0.60
2019-01-19T09:55:05.061Z,0.60
2019-01-19T09:57:34.029Z,0.50
2019-01-19T10:00:03.287Z,0.50
2019-01-19T10:02:31.889Z,0.50
2019-01-19T10:05:01.486Z,0.70
2019-01-19T10:07:30.783Z,0.90
2019-01-19T10:09:59.658Z,1.00
2019-01-19T10:12:28.859Z,1.20
2019-01-19T10:14:57.797Z,1.60
2019-01-19T10:17:26.746Z,1.90
2019-01-19T10:19:56.151Z,2.30
2019-01-19T10:22:25.044Z,2.70
2019-01-19T10:24:53.627Z,3.10
2019-01-19T10:27:22.521Z,3.30
2019-01-19T10:29:51.707Z,3.50
2019-01-19T10:32:20.261Z,3.60
2019-01-19T10:34:48.845Z,3.60
2019-01-19T10:37:17.431Z,3.50
2019-01-19T10:39:46.014Z,3.50
2019-01-19T10:42:14.940Z,3.40
2019-01-19T10:44:43.506Z,3.30
2019-01-19T10:47:12.074Z,3.30
2019-01-19T10:49:40.670Z,3.30
2019-01-19T10:52:09.246Z,3.30
2019-01-19T10:54:37.852Z,3.30
2019-01-19T10:57:06.746Z,3.30
2019-01-19T10:59:35.294Z,3.40
2019-01-19T11:02:04.370Z,3.30
2019-01-19T11:04:32.971Z,3.40
2019-01-19T11:07:01.580Z,3.50
2019-01-19T11:09:30.110Z,3.70
2019-01-19T11:11:59.060Z,3.70
2019-01-19T11:14:27.674Z,3.80
2019-01-19T11:16:56.207Z,3.80
2019-01-19T11:19:24.838Z,3.70
2019-01-19T11:21:53.389Z,3.80
2019-01-19T11:24:22.250Z,3.90
2019-01-19T11:26:50.863Z,4.20
2019-01-19T11:29:19.967Z,4.30
2019-01-19T11:31:48.819Z,4.30
2019-01-19T11:34:17.763Z,4.20
2019-01-19T11:36:46.386Z,4.20
2019-01-19T11:39:14.987Z,4.10
2019-01-19T11:41:43.586Z,3.90
2019-01-19T11:44:12.191Z,3.70
2019-01-19T11:46:40.775Z,3.60
2019-01-19T11:49:09.339Z,3.50
2019-01-19T11:51:37.966Z,3.40
2019-01-19T11:54:06.832Z,3.30
2019-01-19T11:56:35.674Z,3.20
2019-01-19T11:59:04.300Z,3.20
2019-01-19T12:01:33.109Z,3.10
2019-01-19T12:04:01.654Z,3.00
2019-01-19T12:06:30.578Z,3.00
2019-01-19T12:08:59.126Z,3.00
2019-01-19T12:11:28.046Z,3.00
2019-01-19T12:13:56.604Z,3.00
2019-01-19T12:16:25.192Z,2.90
2019-01-19T12:18:54.418Z,3.00
2019-01-19T12:21:22.966Z,2.90
2019-01-19T12:23:51.605Z,2.90
2019-01-19T12:26:20.234Z,2.90
2019-01-19T12:28:49.166Z,2.90
2019-01-19T12:31:17.707Z,2.90
2019-01-19T12:33:46.302Z,3.00
2019-01-19T12:36:15.239Z,3.00
2019-01-19T12:38:43.770Z,3.00
2019-01-19T12:41:13.174Z,3.00
2019-01-19T12:43:42.247Z,3.00
2019-01-19T12:46:11.747Z,3.00
2019-01-19T12:48:40.707Z,2.90
2019-01-19T12:51:11.162Z,2.90
2019-01-19T12:53:40.123Z,2.90
2019-01-19T12:56:08.670Z,2.90
2019-01-19T12:58:37.258Z,2.90
2019-01-19T13:01:05.991Z,3.00
2019-01-19T13:03:34.558Z,3.00
2019-01-19T13:06:50.726Z,3.00
2019-01-19T13:09:31.793Z,3.00
2019-01-19T13:12:18.439Z,3.10
2019-01-19T13:14:55.772Z,3.20
2019-01-19T13:18:02.074Z,3.30
2019-01-19T13:21:02.431Z,3.30
2019-01-19T13:24:03.215Z,3.40
2019-01-19T13:27:00.978Z,3.60
2019-01-19T13:30:08.225Z,3.60
2019-01-19T13:33:21.358Z,3.70
2019-01-19T13:36:21.111Z,3.80
2019-01-19T13:39:11.006Z,3.80
2019-01-19T13:42:18.702Z,3.90
2019-01-19T13:45:15.611Z,3.90
2019-01-19T13:48:05.419Z,3.90
2019-01-19T13:51:01.674Z,3.90
2019-01-19T13:54:15.746Z,3.90
2019-01-19T13:57:11.767Z,3.90
2019-01-19T13:59:59.358Z,3.90
2019-01-19T14:02:46.579Z,3.90
2019-01-19T14:05:55.410Z,4.00
2019-01-19T14:08:56.760Z,4.30
2019-01-19T14:11:49.305Z,4.70
2019-01-19T14:14:42.051Z,5.20
2019-01-19T14:17:45.539Z,5.40
2019-01-19T14:21:07.870Z,5.40
2019-01-19T14:24:08.920Z,5.30
2019-01-19T14:27:25.026Z,5.00
2019-01-19T14:30:25.088Z,4.70
2019-01-19T14:33:24.743Z,4.40
2019-01-19T14:36:33.391Z,4.20
2019-01-19T14:39:54.794Z,4.00
2019-01-19T14:43:14.064Z,3.90
2019-01-19T14:46:04.675Z,4.00
2019-01-19T14:49:03.595Z,4.00
2019-01-19T14:51:56.747Z,4.00
2019-01-19T14:54:34.878Z,4.00
2019-01-19T14:57:47.425Z,3.90
2019-01-19T15:00:51.971Z,3.90
2019-01-19T15:03:30.352Z,3.90
2019-01-19T15:06:26.642Z,3.90
2019-01-19T15:09:25.855Z,3.80
2019-01-19T15:12:35.991Z,3.80
2019-01-19T15:15:40.675Z,3.70
2019-01-19T15:18:45.514Z,3.70
2019-01-19T15:22:05.242Z,3.60
2019-01-19T15:25:02.682Z,3.60
2019-01-19T15:27:59.222Z,3.60
2019-01-19T15:30:51.569Z,3.60
2019-01-19T15:33:49.591Z,3.50
2019-01-19T15:36:39.122Z,3.40
2019-01-19T15:39:19.610Z,3.40
2019-01-19T15:42:42.233Z,3.30
2019-01-19T15:46:19.815Z,3.20
2019-01-19T15:49:15.574Z,3.20
2019-01-19T15:52:25.434Z,3.00
2019-01-19T15:55:30.827Z,3.00
2019-01-19T15:58:43.962Z,2.90
2019-01-19T16:01:43.319Z,2.90
2019-01-19T16:04:33.554Z,2.80
2019-01-19T16:07:28.267Z,2.80
2019-01-19T16:10:42.102Z,2.80
2019-01-19T16:13:44.423Z,2.70
2019-01-19T16:16:31.034Z,2.70
2019-01-19T16:19:27.982Z,2.60
2019-01-19T16:22:38.138Z,2.60
2019-01-19T16:25:52.983Z,2.50
2019-01-19T16:28:53.437Z,2.40
2019-01-19T16:31:52.120Z,2.40
2019-01-19T16:34:49.175Z,2.40
2019-01-19T16:37:39.947Z,2.30
2019-01-19T16:40:37.706Z,2.30
2019-01-19T16:43:20.068Z,2.30
2019-01-19T16:46:12.206Z,2.20
2019-01-19T16:49:37.494Z,2.20
2019-01-19T16:52:26.183Z,2.20
2019-01-19T16:55:32.243Z,2.20
2019-01-19T16:58:18.286Z,2.10
2019-01-19T17:01:25.211Z,2.00
2019-01-19T17:04:31.330Z,2.00
2019-01-19T17:07:22.163Z,2.00
2019-01-19T17:10:27.439Z,1.90
2019-01-19T17:13:33.234Z,1.90
2019-01-19T17:16:42.447Z,1.90
2019-01-19T17:19:50.630Z,1.90
2019-01-19T17:22:52.330Z,1.80
2019-01-19T17:26:01.515Z,1.80
2019-01-19T17:28:53.394Z,1.70
2019-01-19T17:32:06.938Z,1.80
2019-01-19T17:35:03.179Z,1.70
2019-01-19T17:37:46.406Z,1.70
2019-01-19T17:41:00.451Z,1.70
2019-01-19T17:43:40.854Z,1.60
2019-01-19T17:46:47.063Z,1.60
2019-01-19T17:49:51.945Z,1.60
2019-01-19T17:52:54.445Z,1.60
2019-01-19T17:56:04.850Z,1.50
2019-01-19T17:58:48.179Z,1.50
2019-01-19T18:01:54.174Z,1.50
2019-01-19T18:04:53.237Z,1.40
2019-01-19T18:07:53.582Z,1.30
2019-01-19T18:10:53.911Z,1.20
2019-01-19T18:14:03.230Z,1.20
2019-01-19T18:17:11.153Z,1.10
2019-01-19T18:20:24.515Z,1.10
2019-01-19T18:23:50.212Z,1.10
2019-01-19T18:26:49.857Z,1.10
2019-01-19T18:29:49.640Z,1.00
2019-01-19T18:32:47.259Z,1.00
2019-01-19T18:35:32.207Z,0.90
2019-01-19T18:38:37.230Z,0.80
2019-01-19T18:41:21.086Z,0.80
2019-01-19T18:44:40.881Z,0.70
2019-01-19T18:47:53.536Z,0.70
2019-01-19T18:50:57.675Z,0.60
2019-01-19T18:54:09.703Z,0.60
2019-01-19T18:57:28.366Z,0.50
2019-01-19T19:00:18.002Z,0.50
2019-01-19T19:03:49.595Z,0.50
2019-01-19T19:07:00.382Z,0.40
2019-01-19T19:10:13.887Z,0.40
2019-01-19T19:13:23.027Z,0.40
2019-01-19T19:16:28.058Z,0.30
2019-01-19T19:19:19.721Z,0.30
2019-01-19T19:22:03.530Z,0.30
2019-01-19T19:25:23.404Z,0.20
2019-01-19T19:28:45.862Z,0.20
2019-01-19T19:31:52.974Z,0.20
2019-01-19T19:35:18.353Z,0.20
2019-01-19T19:38:15.615Z,0.10
2019-01-19T19:41:18.118Z,0.10
2019-01-19T19:44:15.386Z,0.00
2019-01-19T19:47:34.511Z,0.00
2019-01-19T19:50:19.806Z,0.00
2019-01-19T19:52:48.686Z,-0.10
2019-01-19T19:55:16.099Z,-0.10
2019-01-19T19:57:44.686Z,-0.10
2019-01-19T20:00:13.282Z,-0.20
2019-01-19T20:02:42.190Z,-0.20
2019-01-19T20:05:11.094Z,-0.30
2019-01-19T20:07:39.997Z,-0.30
2019-01-19T20:10:09.422Z,-0.30
2019-01-19T20:12:38.038Z,-0.40
2019-01-19T20:15:07.166Z,-0.40
2019-01-19T20:17:35.955Z,-0.40
2019-01-19T20:20:05.878Z,-0.40
2019-01-19T20:22:34.964Z,-0.50
2019-01-19T20:25:03.530Z,-0.50
2019-01-19T20:27:32.142Z,-0.50
2019-01-19T20:30:01.034Z,-0.60
2019-01-19T20:32:29.902Z,-0.60
2019-01-19T20:34:58.786Z,-0.60
2019-01-19T20:37:28.014Z,-0.60
2019-01-19T20:39:56.610Z,-0.60
2019-01-19T20:42:25.246Z,-0.60
2019-01-19T20:44:53.847Z,-0.70
2019-01-19T20:47:22.758Z,-0.70
2019-01-19T20:49:51.534Z,-0.80
2019-01-19T20:52:20.138Z,-0.80
2019-01-19T20:54:49.122Z,-0.90
2019-01-19T20:57:18.242Z,-0.90
2019-01-19T20:59:47.198Z,-1.00
2019-01-19T21:02:16.035Z,-1.00
2019-01-19T21:04:45.194Z,-1.00
2019-01-19T21:07:13.771Z,-1.00
2019-01-19T21:09:42.709Z,-1.10
2019-01-19T21:12:12.171Z,-1.00
2019-01-19T21:14:40.955Z,-1.10
2019-01-19T21:17:09.826Z,-1.10
2019-01-19T21:19:39.276Z,-1.10
2019-01-19T21:22:07.859Z,-1.10
2019-01-19T21:24:36.493Z,-1.20
2019-01-19T21:27:05.094Z,-1.20
2019-01-19T21:29:34.298Z,-1.30
2019-01-19T21:32:03.102Z,-1.30
2019-01-19T21:34:31.983Z,-1.20
2019-01-19T21:37:00.880Z,-1.30
2019-01-19T21:39:29.423Z,-1.30
2019-01-19T21:41:58.019Z,-1.40
2019-01-19T21:44:26.826Z,-1.40
2019-01-19T21:46:55.410Z,-1.40
2019-01-19T21:49:24.018Z,-1.50
2019-01-19T21:51:52.816Z,-1.50
2019-01-19T21:54:21.443Z,-1.60
2019-01-19T21:56:50.266Z,-1.60
2019-01-19T21:59:19.132Z,-1.60
2019-01-19T22:01:48.066Z,-1.60
2019-01-19T22:04:17.529Z,-1.60
2019-01-19T22:06:48.550Z,-1.60
2019-01-19T22:09:17.190Z,-1.60
2019-01-19T22:11:45.750Z,-1.60
2019-01-19T22:14:14.642Z,-1.70
2019-01-19T22:16:43.206Z,-1.70
2019-01-19T22:19:12.124Z,-1.70
2019-01-19T22:21:41.019Z,-1.80
2019-01-19T22:24:09.566Z,-1.80
2019-01-19T22:26:39.030Z,-1.80
2019-01-19T22:29:08.756Z,-1.80
2019-01-19T22:31:37.722Z,-1.80
2019-01-19T22:34:06.308Z,-1.90
2019-01-19T22:36:34.844Z,-1.90
2019-01-19T22:39:04.450Z,-1.90
2019-01-19T22:41:33.051Z,-1.90
2019-01-19T22:44:02.132Z,-2.00
2019-01-19T22:46:31.042Z,-2.00
2019-01-19T22:48:59.962Z,-2.00
2019-01-19T22:51:28.826Z,-2.00
2019-01-19T22:53:57.730Z,-2.00
2019-01-19T22:56:26.614Z,-2.00
2019-01-19T22:58:55.180Z,-2.10
2019-01-19T23:01:38.893Z,-2.10
2019-01-19T23:04:07.682Z,-2.10
2019-01-19T23:06:36.278Z,-2.10
2019-01-19T23:09:09.666Z,-2.10
2019-01-19T23:11:38.270Z,-2.10
2019-01-19T23:14:08.495Z,-2.10
2019-01-19T23:16:37.414Z,-2.20
2019-01-19T23:19:06.526Z,-2.20
2019-01-19T23:21:35.059Z,-2.20
2019-01-19T23:24:03.664Z,-2.30
2019-01-19T23:26:33.237Z,-2.20
2019-01-19T23:29:02.222Z,-2.20
2019-01-19T23:31:31.460Z,-2.30
2019-01-19T23:34:00.046Z,-2.30
2019-01-19T23:36:28.626Z,-2.30
2019-01-19T23:38:57.198Z,-2.40
2019-01-19T23:41:25.763Z,-2.30
2019-01-19T23:43:54.700Z,-2.40
2019-01-19T23:46:23.258Z,-2.40
2019-01-19T23:48:51.822Z,-2.50
2019-01-19T23:51:22.347Z,-2.40
2019-01-19T23:53:51.503Z,-2.50
2019-01-19T23:56:20.042Z,-2.50
2019-01-19T23:58:49.081Z,-2.50
